Time;durP1;ratioP1;P1;durP2;ratioP2;P2;SDS_P1;SDS_P2;PMS_P1;PMS_P2;Temp;Humidity;BMP_temperature;BMP_pressure;BME280_temperature;BME280_humidity;BME280_pressure;Samples;Min_cycle;Max_cycle;Signal;HPM_P1;HPM_P2
2021/08/20 00:02:22;;;;;;;12.50;5.00;;;;;;;16.80;62.31;95083.47;5067181;28;20109;-76
2021/08/20 00:04:49;;;;;;;7.43;4.55;;;;;;;16.76;63.28;95082.38;5067990;28;20041;-76
2021/08/20 00:07:19;;;;;;;5.65;4.03;;;;;;;16.74;62.82;95087.13;5067146;28;20051;-76
2021/08/20 00:09:46;;;;;;;8.77;4.95;;;;;;;16.72;63.30;95081.34;5068058;28;20048;-75
2021/08/20 00:12:13;;;;;;;7.60;4.18;;;;;;;16.67;62.74;95083.97;5068046;28;20044;-76
2021/08/20 00:14:40;;;;;;;10.23;4.07;;;;;;;16.65;62.75;95072.94;5068040;28;20563;-76
2021/08/20 00:17:07;;;;;;;8.27;4.15;;;;;;;16.66;62.98;95077.94;5067803;28;20510;-76
2021/08/20 00:19:34;;;;;;;8.93;4.25;;;;;;;16.68;62.66;95080.31;5068113;28;20162;-76
2021/08/20 00:22:03;;;;;;;5.97;4.45;;;;;;;16.71;62.81;95075.31;5068307;28;20044;-77
2021/08/20 00:24:30;;;;;;;14.80;4.85;;;;;;;16.72;62.29;95076.09;5068078;28;20110;-77
2021/08/20 00:26:56;;;;;;;10.50;4.70;;;;;;;16.70;63.05;95078.19;5068603;28;20040;-76
2021/08/20 00:29:23;;;;;;;9.98;4.40;;;;;;;16.68;62.75;95069.78;5067832;28;20036;-76
2021/08/20 00:31:52;;;;;;;6.55;4.70;;;;;;;16.65;63.00;95075.56;5066965;28;20429;-76
2021/08/20 00:34:19;;;;;;;8.43;4.43;;;;;;;16.59;63.56;95072.91;5066754;28;20049;-76
2021/08/20 00:36:46;;;;;;;13.45;4.18;;;;;;;16.48;63.47;95066.09;5067252;28;20123;-76
2021/08/20 00:39:13;;;;;;;9.95;4.70;;;;;;;16.55;63.26;95071.88;5067589;28;20056;-75
2021/08/20 00:41:41;;;;;;;8.73;5.07;;;;;;;16.52;63.31;95067.13;5067424;28;20045;-75
2021/08/20 00:44:11;;;;;;;20.05;5.00;;;;;;;16.49;63.30;95072.91;5066842;28;20509;-76
2021/08/20 00:46:38;;;;;;;8.68;4.57;;;;;;;16.42;63.51;95067.94;5067173;28;20041;-76
2021/08/20 00:49:05;;;;;;;10.30;5.03;;;;;;;16.41;64.11;95070.81;5066061;28;20429;-76
2021/08/20 00:51:36;;;;;;;11.40;5.22;;;;;;;16.40;64.25;95064.78;5065772;28;20036;-76
2021/08/20 00:54:08;;;;;;;6.32;4.57;;;;;;;16.44;64.59;95065.03;5049093;28;20055;-76
2021/08/20 00:56:40;;;;;;;8.63;5.18;;;;;;;16.49;64.57;95067.66;5067051;28;20424;-77
2021/08/20 00:59:09;;;;;;;7.90;5.00;;;;;;;16.50;66.42;95069.25;5070720;28;20049;-74
2021/08/20 01:01:36;;;;;;;9.98;4.97;;;;;;;16.51;67.34;95076.09;5067058;28;20037;-75
2021/08/20 01:04:04;;;;;;;7.43;4.38;;;;;;;16.57;67.21;95072.41;5064749;28;20044;-75
2021/08/20 01:06:33;;;;;;;8.90;4.80;;;;;;;16.55;67.37;95063.22;5070742;28;20060;-75
2021/08/20 01:09:00;;;;;;;8.82;4.28;;;;;;;16.48;67.29;95066.09;5048901;28;20045;-75
2021/08/20 01:11:28;;;;;;;7.97;4.85;;;;;;;16.40;67.14;95064.78;5047623;28;20405;-75
2021/08/20 01:13:55;;;;;;;8.52;4.45;;;;;;;16.15;67.65;95064.72;5048906;28;20467;-75
2021/08/20 01:16:22;;;;;;;8.38;4.80;;;;;;;15.93;67.99;95064.94;5067146;28;20068;-75
2021/08/20 01:18:53;;;;;;;6.20;4.90;;;;;;;15.78;68.62;95069.09;5048723;28;20128;-74
2021/08/20 01:21:22;;;;;;;10.13;5.15;;;;;;;15.65;69.50;95074.78;5048642;28;20545;-74
2021/08/20 01:23:58;;;;;;;6.22;5.07;;;;;;;15.51;69.35;95078.94;5065644;28;20128;-75
2021/08/20 01:26:29;;;;;;;7.03;5.00;;;;;;;15.48;69.43;95075.78;5048015;28;20041;-74
2021/08/20 01:28:57;;;;;;;7.40;4.93;;;;;;;15.41;69.89;95075.22;5066897;28;20498;-75
2021/08/20 01:31:25;;;;;;;7.78;5.63;;;;;;;15.39;69.91;95072.03;5046559;28;20071;-75
2021/08/20 01:33:53;;;;;;;8.93;4.38;;;;;;;15.47;69.45;95074.19;5066118;28;20646;-74
2021/08/20 01:36:20;;;;;;;8.98;5.30;;;;;;;15.32;70.37;95081.19;5047789;28;20123;-74
2021/08/20 01:38:53;;;;;;;7.85;5.05;;;;;;;15.26;70.99;95077.75;5048284;28;20560;-74
2021/08/20 01:41:24;;;;;;;8.93;5.90;;;;;;;15.21;70.91;95070.63;5074788;28;20040;-75
2021/08/20 01:43:51;;;;;;;6.72;6.03;;;;;;;15.09;71.32;95073.44;5065910;28;20040;-75
2021/08/20 01:46:18;;;;;;;12.43;5.60;;;;;;;14.94;72.45;95070.72;5048408;28;20132;-76
2021/08/20 01:48:52;;;;;;;9.75;6.95;;;;;;;15.01;72.84;95071.28;5066659;28;20082;-76
2021/08/20 01:51:29;;;;;;;8.48;5.68;;;;;;;15.00;72.20;95072.34;5065805;28;20044;-76
2021/08/20 01:54:00;;;;;;;9.70;5.70;;;;;;;15.06;72.10;95073.94;5077677;28;20154;-75
2021/08/20 01:56:29;;;;;;;9.80;5.90;;;;;;;15.07;72.62;95070.28;5047918;28;20680;-75
2021/08/20 01:58:58;;;;;;;11.38;5.53;;;;;;;15.10;72.47;95069.75;5047048;28;20498;-75
2021/08/20 02:01:30;;;;;;;9.98;5.00;;;;;;;15.14;72.60;95074.50;5047974;28;20044;-76
2021/08/20 02:03:58;;;;;;;9.10;6.22;;;;;;;15.17;72.30;95074.03;5047892;28;20083;-75
2021/08/20 02:06:28;;;;;;;7.53;5.63;;;;;;;15.25;71.87;95070.91;5048524;28;20142;-76
2021/08/20 02:08:56;;;;;;;10.27;6.70;;;;;;;15.23;72.09;95073.00;5048088;28;20418;-75
2021/08/20 02:11:23;;;;;;;10.38;5.30;;;;;;;15.23;72.25;95071.19;5048104;28;20043;-75
2021/08/20 02:13:56;;;;;;;8.52;5.63;;;;;;;15.23;72.39;95068.56;5048502;28;20090;-75
2021/08/20 02:16:25;;;;;;;8.88;5.63;;;;;;;15.20;72.78;95070.91;5051871;28;20456;-74
2021/08/20 02:18:53;;;;;;;8.98;6.22;;;;;;;15.15;72.88;95063.00;5051087;28;20037;-74
2021/08/20 02:21:23;;;;;;;10.20;6.30;;;;;;;15.12;73.24;95071.34;5051926;28;20054;-74
2021/08/20 02:23:51;;;;;;;9.27;6.03;;;;;;;15.01;72.77;95050.31;5051090;28;20569;-75
2021/08/20 02:26:21;;;;;;;7.40;5.57;;;;;;;15.10;73.23;95069.75;5078172;28;20450;-74
2021/08/20 02:28:48;;;;;;;11.77;6.35;;;;;;;15.07;73.38;95070.28;5050664;28;20033;-74
2021/08/20 02:31:14;;;;;;;9.38;5.95;;;;;;;15.05;73.61;95072.38;5050285;28;20040;-74
2021/08/20 02:33:44;;;;;;;8.50;6.05;;;;;;;15.08;73.17;95076.31;5051675;28;20049;-75
2021/08/20 02:36:12;;;;;;;11.88;6.38;;;;;;;15.08;73.14;95077.09;5051623;28;20067;-74
2021/08/20 02:38:40;;;;;;;9.90;5.30;;;;;;;15.14;73.11;95074.50;5052207;28;20045;-75
2021/08/20 02:41:07;;;;;;;15.48;6.15;;;;;;;15.16;72.87;95082.91;5049958;28;20124;-75
2021/08/20 02:43:40;;;;;;;10.05;5.68;;;;;;;15.16;73.23;95082.91;5051778;28;20135;-75
2021/08/20 02:46:07;;;;;;;9.32;6.25;;;;;;;15.19;73.41;95077.19;5069519;28;20491;-75
2021/08/20 02:48:34;;;;;;;8.38;6.00;;;;;;;15.21;73.07;95073.25;5051532;28;20142;-74
2021/08/20 02:51:02;;;;;;;15.90;6.07;;;;;;;15.22;73.23;95076.69;5051812;28;20067;-74
2021/08/20 02:53:31;;;;;;;12.02;6.18;;;;;;;15.16;72.96;95072.44;5051807;28;20528;-75
2021/08/20 02:55:58;;;;;;;18.48;6.40;;;;;;;15.13;73.26;95067.72;5051103;28;20418;-75
2021/08/20 02:58:41;;;;;;;10.45;5.95;;;;;;;15.21;73.23;95085.56;5049959;28;20052;-76
2021/08/20 03:01:09;;;;;;;9.02;5.93;;;;;;;15.21;73.60;95080.34;5068994;28;20036;-74
2021/08/20 03:03:36;;;;;;;11.20;7.05;;;;;;;15.19;74.15;95082.41;5051555;28;20045;-76
2021/08/20 03:06:11;;;;;;;17.27;6.45;;;;;;;15.17;74.52;95079.25;5076848;28;20052;-77
2021/08/20 03:08:38;;;;;;;16.00;6.78;;;;;;;15.10;74.89;95080.25;5051170;28;20043;-76
2021/08/20 03:11:06;;;;;;;17.75;6.63;;;;;;;15.07;75.48;95080.78;5050232;28;20063;-76
2021/08/20 03:13:33;;;;;;;13.05;6.72;;;;;;;15.11;75.25;95086.31;5068976;28;20039;-76
2021/08/20 03:16:02;;;;;;;13.18;8.80;;;;;;;15.13;75.69;95078.97;5050252;28;20061;-76
2021/08/20 03:18:30;;;;;;;17.02;7.75;;;;;;;15.16;75.72;95080.28;5049901;28;20397;-76
2021/08/20 03:20:57;;;;;;;20.27;7.50;;;;;;;15.19;75.38;95077.19;5050124;28;20040;-76
2021/08/20 03:23:29;;;;;;;14.68;6.15;;;;;;;15.25;75.05;95087.47;5049937;28;20045;-76
2021/08/20 03:25:56;;;;;;;18.40;6.40;;;;;;;15.30;75.12;95084.06;5049249;28;20055;-76
2021/08/20 03:28:24;;;;;;;11.77;6.32;;;;;;;15.32;74.80;95081.97;5049405;28;20560;-77
2021/08/20 03:30:56;;;;;;;10.85;6.28;;;;;;;15.27;74.93;95089.84;5048764;28;20520;-77
2021/08/20 03:33:23;;;;;;;9.90;6.93;;;;;;;15.30;75.51;95089.31;5050844;28;20094;-75
2021/08/20 03:36:04;;;;;;;10.60;6.10;;;;;;;15.27;75.07;95095.84;5073736;28;20040;-75
2021/08/20 03:38:30;;;;;;;20.15;8.43;;;;;;;15.29;75.88;95095.59;5068953;28;20036;-76
2021/08/20 03:40:58;;;;;;;15.00;8.32;;;;;;;15.32;75.70;95100.31;5050807;28;20044;-75
2021/08/20 03:43:33;;;;;;;13.50;7.28;;;;;;;15.35;76.56;95097.22;5049485;28;20520;-76
2021/08/20 03:46:15;;;;;;;9.63;6.55;;;;;;;15.17;77.42;95095.00;5050637;28;20044;-75
2021/08/20 03:48:44;;;;;;;12.25;7.47;;;;;;;15.15;77.23;95086.59;5051010;28;20454;-76
2021/08/20 03:51:12;;;;;;;11.50;7.40;;;;;;;15.16;77.53;95093.41;5050074;28;20488;-75
2021/08/20 03:53:39;;;;;;;9.00;6.57;;;;;;;15.27;76.97;95105.56;5068571;28;20040;-75
2021/08/20 03:56:06;;;;;;;11.65;6.50;;;;;;;15.27;77.80;95110.81;5049338;28;20044;-75
2021/08/20 03:58:58;;;;;;;8.23;5.80;;;;;;;15.29;78.27;95111.34;5039624;28;20140;-75
2021/08/20 04:01:26;;;;;;;9.48;6.72;;;;;;;15.31;78.28;95106.63;5050353;28;20086;-75
2021/08/20 04:03:56;;;;;;;14.50;6.70;;;;;;;15.38;77.78;95112.44;5066177;28;20117;-74
2021/08/20 04:06:37;;;;;;;8.65;5.88;;;;;;;15.48;76.69;95107.28;5048198;28;20056;-73
2021/08/20 04:09:04;;;;;;;10.45;6.53;;;;;;;15.60;76.17;95114.16;5049583;28;20036;-73
2021/08/20 04:11:44;;;;;;;13.00;6.70;;;;;;;15.57;77.28;95110.19;5049781;28;20140;-73
2021/08/20 04:14:31;;;;;;;20.98;6.82;;;;;;;15.59;77.23;95112.56;5066540;28;20063;-73
2021/08/20 04:17:00;;;;;;;9.88;6.05;;;;;;;15.59;77.24;95112.56;5048003;28;20041;-73
2021/08/20 04:19:27;;;;;;;16.75;6.63;;;;;;;15.60;77.87;95114.16;5067455;28;20505;-74
2021/08/20 04:21:53;;;;;;;10.05;6.82;;;;;;;15.63;77.63;95113.63;5049121;28;20041;-73
2021/08/20 04:24:22;;;;;;;9.10;6.90;;;;;;;15.65;77.99;95114.19;5048037;28;20045;-73
2021/08/20 04:26:51;;;;;;;12.05;6.97;;;;;;;15.69;77.94;95120.50;5049409;28;20068;-73
2021/08/20 04:29:43;;;;;;;11.63;7.03;;;;;;;15.75;77.85;95122.09;5049371;28;20098;-74
2021/08/20 04:32:39;;;;;;;10.82;7.68;;;;;;;15.86;77.32;95113.25;4993580;28;20050;-73
2021/08/20 04:35:26;;;;;;;12.88;6.47;;;;;;;15.88;77.65;95120.06;5066836;28;20059;-74
2021/08/20 04:38:07;;;;;;;9.82;6.43;;;;;;;15.87;77.84;95127.16;5077829;28;20040;-74
2021/08/20 04:40:52;;;;;;;12.90;6.78;;;;;;;15.82;79.84;95127.91;5067530;28;20043;-74
2021/08/20 04:43:38;;;;;;;10.57;6.78;;;;;;;15.84;80.63;95136.31;5067509;28;20528;-74
2021/08/20 04:46:25;;;;;;;10.10;7.05;;;;;;;15.92;79.82;95136.88;5066551;28;20048;-75
2021/08/20 04:49:11;;;;;;;8.15;6.20;;;;;;;15.98;80.04;95135.88;5067228;28;20098;-76
2021/08/20 04:52:16;;;;;;;11.07;6.57;;;;;;;16.12;79.87;95136.97;4985859;28;20078;-76
2021/08/20 04:55:12;;;;;;;17.38;6.75;;;;;;;16.24;79.64;95145.44;4951249;28;20047;-76
2021/08/20 04:57:39;;;;;;;10.90;6.10;;;;;;;16.36;80.34;95147.81;5021989;28;20045;-77
2021/08/20 05:00:07;;;;;;;10.77;6.03;;;;;;;16.44;79.75;95144.69;5049615;28;20836;-76
2021/08/20 05:02:36;;;;;;;11.45;6.97;;;;;;;16.50;79.97;95142.84;5066832;28;20055;-75
2021/08/20 05:05:07;;;;;;;8.63;6.63;;;;;;;16.54;79.44;95132.59;5067742;28;20049;-75
2021/08/20 05:07:35;;;;;;;12.73;6.60;;;;;;;16.62;79.45;95140.00;5067252;28;20048;-75
2021/08/20 05:10:09;;;;;;;15.73;6.90;;;;;;;16.72;79.77;95139.19;5067695;28;20111;-75
2021/08/20 05:12:38;;;;;;;14.73;6.43;;;;;;;16.80;79.47;95130.81;5047441;28;20581;-74
2021/08/20 05:15:07;;;;;;;9.10;6.05;;;;;;;16.88;79.46;95148.72;5066504;28;20051;-75
2021/08/20 05:17:34;;;;;;;9.43;6.13;;;;;;;16.92;78.96;95141.84;5065945;28;20041;-75
2021/08/20 05:20:01;;;;;;;9.93;5.65;;;;;;;16.97;77.46;95136.59;5066639;28;20106;-75
2021/08/20 05:22:45;;;;;;;10.02;6.55;;;;;;;17.17;77.93;95148.19;5066921;28;20037;-75
2021/08/20 05:25:12;;;;;;;;;;;;;;;17.24;77.20;95147.91;5066912;28;20044;-75
2021/08/20 05:27:39;;;;;;;14.05;6.32;;;;;;;17.30;75.97;95155.53;5066372;28;19920;-75
2021/08/20 05:30:07;;;;;;;7.68;5.82;;;;;;;17.43;74.97;95156.03;5066392;28;20055;-75
2021/08/20 05:32:34;;;;;;;12.43;7.18;;;;;;;17.54;74.18;95155.00;5064238;28;20055;-75
2021/08/20 05:35:02;;;;;;;10.18;5.30;;;;;;;17.67;73.95;95154.41;5066795;28;20482;-75
2021/08/20 05:37:29;;;;;;;10.50;5.60;;;;;;;17.78;72.89;95158.59;5066930;28;20055;-75
2021/08/20 05:39:55;;;;;;;9.20;5.18;;;;;;;17.82;72.62;95152.81;5065971;28;20052;-75
2021/08/20 05:42:22;;;;;;;6.70;5.40;;;;;;;17.95;71.74;95145.16;5066067;28;20045;-75
2021/08/20 05:44:49;;;;;;;8.55;6.32;;;;;;;18.16;71.34;95155.59;5066445;28;20056;-75
2021/08/20 05:47:16;;;;;;;13.90;6.07;;;;;;;18.20;70.96;95156.63;5066029;28;20170;-75
2021/08/20 05:49:43;;;;;;;13.20;7.50;;;;;;;18.28;72.13;95155.28;5065751;28;20036;-75
2021/08/20 05:52:10;;;;;;;10.32;6.55;;;;;;;18.41;72.10;95162.59;5065366;28;20050;-76
2021/08/20 05:54:37;;;;;;;10.85;6.40;;;;;;;18.49;71.35;95154.13;5065340;28;20041;-75
2021/08/20 05:57:04;;;;;;;9.07;6.70;;;;;;;18.64;71.21;95163.00;5066135;28;20490;-76
2021/08/20 05:59:31;;;;;;;7.75;5.88;;;;;;;18.68;70.58;95162.19;5047328;28;20079;-74
2021/08/20 06:01:58;;;;;;;6.53;5.50;;;;;;;18.75;71.65;95156.59;5065589;28;20044;-75
2021/08/20 06:04:25;;;;;;;6.47;5.07;;;;;;;18.86;70.65;95160.78;5047829;28;20063;-75
2021/08/20 06:06:52;;;;;;;7.57;5.80;;;;;;;19.00;70.24;95152.25;5047288;28;20515;-74
2021/08/20 06:09:21;;;;;;;6.72;5.10;;;;;;;19.09;69.47;95153.22;5046449;28;20182;-75
2021/08/20 06:11:48;;;;;;;8.15;4.90;;;;;;;19.15;69.37;95157.38;5065719;28;20048;-75
2021/08/20 06:14:15;;;;;;;6.47;4.93;;;;;;;19.25;68.75;95149.38;5065959;28;20044;-75
2021/08/20 06:16:42;;;;;;;8.27;5.18;;;;;;;19.36;67.32;95151.94;5066572;28;20044;-75
2021/08/20 06:19:09;;;;;;;6.07;4.53;;;;;;;19.49;66.23;95153.91;5065069;28;20524;-75
2021/08/20 06:21:36;;;;;;;10.25;5.13;;;;;;;19.55;66.34;95142.22;5066350;28;20397;-76
2021/08/20 06:24:03;;;;;;;8.88;4.65;;;;;;;19.68;64.09;95146.84;5066402;28;20056;-75
2021/08/20 06:26:29;;;;;;;5.57;4.97;;;;;;;19.74;63.44;95139.69;5066273;28;20032;-75
2021/08/20 06:28:57;;;;;;;6.03;4.82;;;;;;;19.83;64.11;95147.78;5066359;28;20045;-75
2021/08/20 06:31:24;;;;;;;5.60;4.65;;;;;;;19.86;63.69;95137.44;5046340;28;20047;-75
2021/08/20 06:33:53;;;;;;;7.45;5.20;;;;;;;20.03;62.63;95147.56;5066140;28;20109;-75
2021/08/20 06:36:20;;;;;;;5.88;4.53;;;;;;;20.16;61.92;95142.66;5064811;28;20032;-75
2021/08/20 06:38:47;;;;;;;6.95;4.47;;;;;;;20.30;62.02;95146.16;5066135;28;20040;-75
2021/08/20 06:41:13;;;;;;;8.88;4.97;;;;;;;20.39;61.59;95149.75;5065541;28;20041;-75
2021/08/20 06:43:43;;;;;;;5.30;4.47;;;;;;;20.49;62.87;95146.19;5046693;28;20053;-75
2021/08/20 06:46:09;;;;;;;7.07;4.95;;;;;;;20.57;60.68;95139.47;5065985;28;20049;-75
2021/08/20 06:48:36;;;;;;;11.13;5.53;;;;;;;20.70;59.73;95154.63;5065606;28;20052;-75
2021/08/20 06:51:03;;;;;;;9.60;5.78;;;;;;;20.73;60.30;95151.44;5065844;28;20036;-75
2021/08/20 06:53:30;;;;;;;8.60;4.88;;;;;;;20.87;60.87;95153.34;5066179;28;20059;-75
2021/08/20 06:55:57;;;;;;;7.03;5.03;;;;;;;20.89;59.26;95151.22;5064972;28;20076;-75
2021/08/20 06:58:24;;;;;;;8.48;4.07;;;;;;;20.98;58.78;95149.47;5064962;28;20367;-76
2021/08/20 07:00:50;;;;;;;13.48;5.43;;;;;;;21.10;58.37;95149.78;5067450;28;20036;-75
2021/08/20 07:03:18;;;;;;;8.05;4.57;;;;;;;21.17;57.95;95142.25;5069814;28;20041;-75
2021/08/20 07:05:45;;;;;;;7.40;5.28;;;;;;;21.29;56.69;95143.69;5068580;28;20280;-75
2021/08/20 07:08:11;;;;;;;8.23;4.60;;;;;;;21.33;58.78;95134.06;5069058;28;20032;-75
2021/08/20 07:10:38;;;;;;;10.68;6.13;;;;;;;21.46;56.61;95143.16;5069710;28;20032;-75
2021/08/20 07:13:05;;;;;;;9.88;4.75;;;;;;;21.59;57.26;95147.69;5070126;28;20494;-75
2021/08/20 07:15:32;;;;;;;6.57;4.13;;;;;;;21.77;55.52;95149.47;5069450;28;20422;-75
2021/08/20 07:17:59;;;;;;;11.48;3.88;;;;;;;21.94;56.09;95151.53;5049619;28;20047;-74
2021/08/20 07:20:26;;;;;;;7.82;4.40;;;;;;;21.85;57.03;95150.66;5047937;28;20047;-75
2021/08/20 07:22:52;;;;;;;6.25;4.07;;;;;;;22.04;57.06;95153.22;5068518;28;20053;-75
2021/08/20 07:25:20;;;;;;;6.30;4.57;;;;;;;22.20;55.83;95144.94;5066431;28;20060;-76
2021/08/20 07:27:47;;;;;;;6.00;3.75;;;;;;;22.52;54.14;95147.44;5068038;28;20044;-75
2021/08/20 07:30:14;;;;;;;9.70;4.28;;;;;;;22.59;54.30;95149.69;5066851;28;20040;-74
2021/08/20 07:32:40;;;;;;;5.10;4.20;;;;;;;22.76;54.61;95150.94;5067068;28;20414;-74
2021/08/20 07:35:07;;;;;;;7.90;4.07;;;;;;;22.86;55.04;95145.41;5068727;28;20048;-75
2021/08/20 07:37:34;;;;;;;5.80;3.90;;;;;;;23.06;53.14;95144.16;5068015;28;20766;-74
2021/08/20 07:40:01;;;;;;;12.57;4.15;;;;;;;23.17;52.92;95142.81;5068532;28;20029;-75
2021/08/20 07:42:28;;;;;;;5.40;4.22;;;;;;;23.13;51.88;95131.22;5068326;28;20045;-75
2021/08/20 07:44:54;;;;;;;4.75;4.30;;;;;;;23.25;53.07;95136.00;5068167;28;20045;-75
2021/08/20 07:47:21;;;;;;;5.85;4.57;;;;;;;23.27;51.35;95133.81;5049680;28;20056;-74
2021/08/20 07:49:48;;;;;;;8.20;4.28;;;;;;;23.34;51.92;95139.50;5066981;28;20041;-74
2021/08/20 07:52:15;;;;;;;7.45;4.53;;;;;;;23.40;51.49;95140.91;5068330;28;20425;-73
2021/08/20 07:54:42;;;;;;;6.85;4.55;;;;;;;23.51;52.11;95132.69;5068309;28;20394;-75
2021/08/20 07:57:09;;;;;;;5.78;4.43;;;;;;;23.63;52.14;95135.56;5067304;28;20036;-75
2021/08/20 07:59:35;;;;;;;11.38;4.63;;;;;;;23.97;49.56;95124.31;5066521;28;20106;-75
2021/08/20 08:02:02;;;;;;;7.45;4.68;;;;;;;24.11;49.75;95126.84;5066679;28;20067;-76
2021/08/20 08:04:29;;;;;;;6.80;5.07;;;;;;;24.31;49.46;95127.34;5067524;28;20535;-76
2021/08/20 08:06:56;;;;;;;6.72;4.20;;;;;;;24.31;48.22;95135.31;5068402;28;20040;-76
2021/08/20 08:09:23;;;;;;;6.00;4.43;;;;;;;24.31;47.47;95137.97;5068341;28;20501;-78
2021/08/20 08:11:50;;;;;;;6.15;4.00;;;;;;;24.38;48.12;95138.31;5066520;28;20050;-75
2021/08/20 08:14:17;;;;;;;6.53;4.22;;;;;;;24.54;47.22;95138.66;5067686;28;20509;-75
2021/08/20 08:16:44;;;;;;;5.90;3.97;;;;;;;;;;5068612;28;20109;-75
2021/08/20 08:19:11;;;;;;;7.95;4.65;;;;;;;24.66;45.71;95132.75;5067703;28;20048;-74
2021/08/20 08:21:37;;;;;;;6.22;4.13;;;;;;;24.60;45.99;95140.88;5068314;28;20044;-75
2021/08/20 08:24:05;;;;;;;5.70;3.97;;;;;;;24.77;46.65;95139.31;5050279;28;20558;-75
2021/08/20 08:26:32;;;;;;;13.88;4.72;;;;;;;24.66;45.96;95138.06;5068477;28;20055;-75
2021/08/20 08:28:58;;;;;;;7.72;5.18;;;;;;;24.86;48.37;95140.09;5068121;28;20418;-75
2021/08/20 08:31:25;;;;;;;4.80;3.70;;;;;;;24.92;47.31;95136.19;5067612;28;20497;-75
2021/08/20 08:33:52;;;;;;;8.02;4.60;;;;;;;24.86;45.02;95131.31;5066865;28;20131;-74
2021/08/20 08:36:19;;;;;;;5.85;3.88;;;;;;;25.06;44.54;95124.56;5067621;28;20110;-75
2021/08/20 08:38:48;;;;;;;6.63;4.60;;;;;;;24.97;46.17;95117.38;5066267;28;20048;-75
2021/08/20 08:41:18;;;;;;;5.35;4.38;;;;;;;25.18;47.25;95116.72;5066538;28;20044;-76
2021/08/20 08:43:45;;;;;;;7.13;4.95;;;;;;;25.40;45.48;95123.72;5067627;28;20032;-75
2021/08/20 08:46:18;;;;;;;7.10;5.13;;;;;;;25.48;46.98;95130.94;5067648;28;20049;-75
2021/08/20 08:48:45;;;;;;;8.07;4.25;;;;;;;25.62;45.36;95130.72;5067429;28;20119;-74
2021/08/20 08:51:12;;;;;;;4.88;4.32;;;;;;;25.79;45.14;95119.22;5065895;28;20036;-75
2021/08/20 08:53:39;;;;;;;5.07;4.57;;;;;;;25.97;45.85;95124.50;5067686;28;20048;-73
2021/08/20 08:56:07;;;;;;;8.57;5.13;;;;;;;26.17;43.45;95123.75;5067642;28;20815;-74
2021/08/20 08:58:34;;;;;;;10.48;4.85;;;;;;;26.33;44.20;95115.97;5067289;28;20070;-74
2021/08/20 09:01:31;;;;;;;5.45;4.60;;;;;;;26.69;44.25;95114.63;5066571;28;20145;-73
2021/08/20 09:04:10;;;;;;;9.98;5.22;;;;;;;26.88;41.53;95117.63;5064251;28;20055;-74
2021/08/20 09:06:44;;;;;;;9.70;4.40;;;;;;;26.72;41.28;95111.28;5064888;28;20126;-74
2021/08/20 09:09:13;;;;;;;6.40;4.50;;;;;;;26.82;42.92;95107.44;5064651;28;20060;-75
2021/08/20 09:11:40;;;;;;;6.50;4.47;;;;;;;26.94;41.19;95112.84;5065048;28;20494;-75
2021/08/20 09:14:08;;;;;;;7.72;5.15;;;;;;;27.00;40.27;95110.75;5066014;28;20052;-75
2021/08/20 09:16:41;;;;;;;5.78;4.30;;;;;;;27.42;39.87;95111.44;5065275;28;20051;-75
2021/08/20 09:19:13;;;;;;;8.27;4.68;;;;;;;27.59;39.52;95113.13;5066467;28;20452;-75
2021/08/20 09:21:41;;;;;;;5.30;4.28;;;;;;;27.70;41.64;95120.75;5065835;28;20036;-75
2021/08/20 09:24:40;;;;;;;9.73;5.28;;;;;;;27.95;40.24;95110.84;5064337;28;20040;-75
2021/08/20 09:27:17;;;;;;;7.88;4.85;;;;;;;28.32;39.29;95111.56;5065640;28;20044;-75
2021/08/20 09:29:54;;;;;;;5.60;5.00;;;;;;;28.05;38.18;95110.38;5065918;28;20421;-75
2021/08/20 09:32:22;;;;;;;6.32;4.47;;;;;;;28.19;37.88;95102.00;5064341;28;20041;-75
2021/08/20 09:34:49;;;;;;;8.15;4.70;;;;;;;28.55;37.53;95103.09;5065770;28;20059;-75
2021/08/20 09:37:16;;;;;;;8.20;5.32;;;;;;;28.33;36.53;95098.97;5065291;28;20124;-75
2021/08/20 09:39:47;;;;;;;5.43;4.93;;;;;;;28.58;37.47;95089.00;5047110;28;20068;-74
2021/08/20 09:42:17;;;;;;;8.43;5.68;;;;;;;28.58;37.58;95099.72;5065494;28;20402;-75
2021/08/20 09:44:45;;;;;;;11.90;5.68;;;;;;;28.47;37.51;95085.19;5065012;28;20510;-74
2021/08/20 09:47:12;;;;;;;7.70;5.28;;;;;;;28.58;38.17;95099.72;5066259;28;20512;-75
2021/08/20 09:50:09;;;;;;;11.40;5.90;;;;;;;29.05;35.75;95091.06;5047824;28;20048;-75
2021/08/20 09:52:35;;;;;;;8.48;5.43;;;;;;;29.20;36.25;95094.13;5053482;28;20056;-75
2021/08/20 09:55:03;;;;;;;7.65;5.03;;;;;;;29.41;37.64;95086.63;5066134;28;20049;-75
2021/08/20 09:57:32;;;;;;;6.57;5.53;;;;;;;29.82;35.60;95087.25;5066082;28;20674;-74
2021/08/20 10:00:00;;;;;;;9.30;5.90;;;;;;;29.36;35.31;95089.56;5065828;28;20056;-75
2021/08/20 10:02:32;;;;;;;8.07;5.32;;;;;;;29.53;35.46;95088.44;5066259;28;20051;-74
2021/08/20 10:04:59;;;;;;;14.05;6.38;;;;;;;29.85;36.18;95083.88;5064638;28;20036;-75
2021/08/20 10:07:27;;;;;;;10.63;6.55;;;;;;;30.12;36.73;95089.47;5064995;28;20067;-75
2021/08/20 10:09:55;;;;;;;7.13;5.68;;;;;;;30.39;34.71;95089.69;5065076;28;20048;-75
2021/08/20 10:12:24;;;;;;;12.98;6.22;;;;;;;30.15;35.38;95088.00;5065722;28;20039;-74
2021/08/20 10:14:53;;;;;;;6.32;5.43;;;;;;;30.26;33.78;95092.44;5065373;28;20060;-75
2021/08/20 10:17:20;;;;;;;6.78;5.50;;;;;;;30.56;33.47;95083.91;5064721;28;20041;-75
2021/08/20 10:19:51;;;;;;;10.07;5.50;;;;;;;30.63;33.57;95088.63;5066129;28;20447;-75
2021/08/20 10:22:18;;;;;;;10.80;6.38;;;;;;;30.76;32.46;95086.59;5066071;28;20401;-75
2021/08/20 10:24:45;;;;;;;8.00;6.93;;;;;;;31.23;31.89;95077.50;5064261;28;20052;-75
2021/08/20 10:27:16;;;;;;;6.72;6.03;;;;;;;30.95;32.18;95072.38;5058014;28;20063;-77
2021/08/20 10:29:49;;;;;;;8.27;6.10;;;;;;;30.99;31.81;95074.00;5065316;28;20047;-77
2021/08/20 10:32:17;;;;;;;6.97;5.60;;;;;;;31.34;30.36;95075.75;5063488;28;20036;-77
2021/08/20 10:34:44;;;;;;;9.13;5.65;;;;;;;31.25;31.78;95080.59;5065199;28;20037;-77
2021/08/20 10:37:11;;;;;;;9.25;5.80;;;;;;;31.31;31.75;95079.16;5069683;28;20040;-77
2021/08/20 10:39:44;;;;;;;8.88;5.82;;;;;;;31.25;32.37;95065.22;5069362;28;20056;-78
2021/08/20 10:42:15;;;;;;;9.82;5.95;;;;;;;31.06;32.71;95052.63;5066940;28;20029;-77
2021/08/20 10:44:45;;;;;;;9.65;5.75;;;;;;;32.17;29.17;95069.78;5068057;28;20468;-77
2021/08/20 10:47:26;;;;;;;7.75;5.93;;;;;;;32.70;29.44;95068.16;5067957;28;20044;-77
2021/08/20 10:50:12;;;;;;;9.52;7.30;;;;;;;32.65;26.89;95060.41;5069212;28;20502;-77
2021/08/20 10:52:42;;;;;;;7.57;5.63;;;;;;;32.96;26.49;95049.19;5069356;28;20033;-77
2021/08/20 10:55:23;;;;;;;6.90;5.22;;;;;;;32.53;29.49;95045.97;5069484;28;20037;-76
2021/08/20 10:57:50;;;;;;;7.32;5.47;;;;;;;33.16;26.72;95046.31;5068494;28;20040;-76
2021/08/20 11:00:20;;;;;;;10.80;5.57;;;;;;;33.40;26.23;95046.91;5068066;28;20067;-76
2021/08/20 11:02:52;;;;;;;6.32;5.70;;;;;;;33.62;26.59;95035.16;5067993;28;20497;-77
2021/08/20 11:05:35;;;;;;;10.85;5.80;;;;;;;33.45;27.99;95035.78;5069265;28;20044;-77
2021/08/20 11:08:02;;;;;;;7.28;5.38;;;;;;;33.85;26.72;95037.66;5067321;28;20048;-77
2021/08/20 11:10:30;;;;;;;6.47;5.75;;;;;;;34.40;25.58;95039.50;5067215;28;20051;-77
2021/08/20 11:12:57;;;;;;;9.10;7.15;;;;;;;34.49;27.29;95035.69;5068770;28;20048;-77
2021/08/20 11:15:27;;;;;;;8.38;5.50;;;;;;;34.95;25.16;95045.88;5067928;28;20044;-76
2021/08/20 11:17:54;;;;;;;8.50;5.25;;;;;;;35.25;24.04;95031.28;5068320;28;20040;-77
2021/08/20 11:20:32;;;;;;;5.80;5.18;;;;;;;35.49;24.28;95035.94;5067131;28;20074;-76
2021/08/20 11:23:07;;;;;;;7.68;5.03;;;;;;;35.78;24.13;95035.94;5069345;28;20052;-77
2021/08/20 11:25:56;;;;;;;6.90;6.00;;;;;;;35.43;24.40;95029.34;5064535;28;20425;-76
2021/08/20 11:28:33;;;;;;;6.47;5.80;;;;;;;35.64;24.56;95033.19;5066927;28;20512;-76
2021/08/20 11:31:05;;;;;;;8.80;5.82;;;;;;;35.68;23.25;95025.88;5068551;28;20158;-76
2021/08/20 11:33:44;;;;;;;7.05;5.93;;;;;;;34.61;25.69;95038.03;5066632;28;20480;-77
2021/08/20 11:36:22;;;;;;;9.77;5.97;;;;;;;34.92;24.95;95019.63;5067358;28;20048;-77
2021/08/20 11:39:01;;;;;;;8.30;5.97;;;;;;;35.04;26.31;95032.75;5067052;28;20082;-77
2021/08/20 11:41:35;;;;;;;11.50;6.10;;;;;;;34.44;25.88;95013.25;5066165;28;20517;-74
2021/08/20 11:44:07;;;;;;;6.30;5.70;;;;;;;35.28;24.80;95003.47;5067417;28;20059;-78
2021/08/20 11:46:42;;;;;;;8.32;5.47;;;;;;;35.91;23.24;95007.28;5063195;28;20440;-77